Eagle — WBP2187 — position and weather

sailwx.info

Track history (hours):
 
Tides and Currents Weather Stations Pressure Air Temp Water Temp Dewpoint Dewpoint Depression Visibility Wind Speed Wind Dir Waves Ship Positions

Eagle

Owner: Harley Marine Services, INC, SEATTLE, WA. More information available from US FCC via Universal Licensing System and Coast Guard Vessel Documentation Center.

Last reported at 2015-Apr-27 16:04 UTC. Time now 2015-Apr-27 22:11 UTC.
Position N 38°31' W 123°43'.

Length 32 m; draft 4 m.

Type: Tow > 200 m length. MMSI: 366978690.

Date/timePositionNaut miles runAvg speedWind from/ knotsBaromVisibWave heightAir tempDewpointWater temp
2015-Apr-27 16:04N 38°31' W 123°43'3 5.8
2015-Apr-27 15:30N 38°29' W 123°40'5 5.7
2015-Apr-27 14:33N 38°24' W 123°36'6 5.5
2015-Apr-27 13:34N 38°20' W 123°31'6 5.7
2015-Apr-27 12:33N 38°16' W 123°26'6 5.8
2015-Apr-27 11:33N 38°11' W 123°22'6 5.6
2015-Apr-27 10:33N 38°07' W 123°17'5 5.3
2015-Apr-27 09:33N 38°03' W 123°13'6 5.7
2015-Apr-27 08:33N 37°58' W 123°08'6 5.7
2015-Apr-27 07:33N 37°56' W 123°02'6 5.6
2015-Apr-27 06:34N 37°53' W 122°56'6 5.8
2015-Apr-27 05:32N 37°50' W 122°49'6 5.4
2015-Apr-27 04:24N 37°47' W 122°42'4 4.2
2015-Apr-27 03:30N 37°46' W 122°38'6 6.0
2015-Apr-27 02:32N 37°48' W 122°31'6 6.0
2015-Apr-27 01:33N 37°51' W 122°25'4 3.6
2015-Apr-27 00:33N 37°54' W 122°24'2 1.6
2015-Apr-26 23:33N 37°55' W 122°22'0 0.0
2015-Apr-26 22:25N 37°55' W 122°22'0 0.0
2015-Apr-26 21:32N 37°55' W 122°22'0 0.0
2015-Apr-26 20:33N 37°55' W 122°22'0 0.0
2015-Apr-26 19:34N 37°55' W 122°22'0 0.0
2015-Apr-26 18:33N 37°55' W 122°22'0 0.0
2015-Apr-26 17:32N 37°55' W 122°22'0 0.0
2015-Apr-26 16:32N 37°55' W 122°22'0 0.0
2015-Apr-26 15:10N 37°55' W 122°22'0 0.0
2015-Apr-26 14:32N 37°55' W 122°22'0 0.0
2015-Apr-26 13:33N 37°55' W 122°22'0 0.0
2015-Apr-26 12:33N 37°55' W 122°22'0 0.0
2015-Apr-26 11:33N 37°55' W 122°22'0 0.0
2015-Apr-26 10:33N 37°55' W 122°22'0 0.0
2015-Apr-26 09:33N 37°55' W 122°22'0 0.0
2015-Apr-26 08:33N 37°55' W 122°22'2 2.3
2015-Apr-26 07:33N 37°55' W 122°25'6 5.7
2015-Apr-26 06:33N 38°01' W 122°24'5 5.3
2015-Apr-26 05:33N 38°03' W 122°18'2 1.8
2015-Apr-26 04:32N 38°03' W 122°16'0 0.0
2015-Apr-26 03:33N 38°03' W 122°16'0 0.0
2015-Apr-26 02:33N 38°03' W 122°16'0 0.0
2015-Apr-26 01:33N 38°03' W 122°16'0 0.0
2015-Apr-26 00:33N 38°03' W 122°16'0 0.0
2015-Apr-25 23:33N 38°03' W 122°16'0 0.0
2015-Apr-25 22:33N 38°03' W 122°16'0 0.0
2015-Apr-25 21:33N 38°03' W 122°16'0 0.0
2015-Apr-25 20:32N 38°03' W 122°16'0 0.0
2015-Apr-25 19:33N 38°03' W 122°16'0 0.0
2015-Apr-25 18:16N 38°03' W 122°16'0 0.1
2015-Apr-25 17:33N 38°03' W 122°16'0 0.0
2015-Apr-25 16:33N 38°03' W 122°16'0 0.0
2015-Apr-25 15:18N 38°03' W 122°16'0 0.1
2015-Apr-25 14:33N 38°03' W 122°16'0 0.3
2015-Apr-25 13:33N 38°04' W 122°16'7 6.9
2015-Apr-25 12:33N 38°01' W 122°24'7 7.3
2015-Apr-25 11:33N 37°53' W 122°26'7 6.8
2015-Apr-25 10:33N 37°47' W 122°22'3 2.6
2015-Apr-25 09:33N 37°45' W 122°20'0 0.1
2015-Apr-25 08:30N 37°45' W 122°20'0 0.0
2015-Apr-25 07:33N 37°45' W 122°20'0 0.1
2015-Apr-25 06:27N 37°45' W 122°20'0 0.1
2015-Apr-25 05:33N 37°45' W 122°21'0 0.0
2015-Apr-25 04:32N 37°45' W 122°21'0 0.0
2015-Apr-25 03:32N 37°45' W 122°21'3 2.9
2015-Apr-25 02:33N 37°48' W 122°20'3 2.5
2015-Apr-25 01:31N 37°48' W 122°17'0 0.0
2015-Apr-25 00:31N 37°48' W 122°17'0 0.0
2015-Apr-24 23:31N 37°48' W 122°17'0 0.0
2015-Apr-24 22:31N 37°48' W 122°17'0 0.2
2015-Apr-24 21:33N 37°48' W 122°17'2 2.0
2015-Apr-24 20:26N 37°49' W 122°20'0 0.1
2015-Apr-24 19:32N 37°49' W 122°20'0 0.0
2015-Apr-24 18:32N 37°49' W 122°20'0 0.0
2015-Apr-24 17:32N 37°49' W 122°20'0 0.0
2015-Apr-24 16:26N 37°49' W 122°20'0 0.0
2015-Apr-24 15:20N 37°49' W 122°20'0 0.0
2015-Apr-24 14:32N 37°49' W 122°20'0 0.0
2015-Apr-24 13:29N 37°49' W 122°20'0 0.0
2015-Apr-24 12:32N 37°49' W 122°20'0 0.0
2015-Apr-24 11:29N 37°49' W 122°20'0 0.0
2015-Apr-24 10:32N 37°49' W 122°20'0 0.0
2015-Apr-24 09:25N 37°49' W 122°20'0 0.0
2015-Apr-24 08:31N 37°49' W 122°20'0 0.0
2015-Apr-24 07:22N 37°49' W 122°20'0 0.0
2015-Apr-24 06:31N 37°49' W 122°20'0 0.0
2015-Apr-24 05:31N 37°49' W 122°20'0 0.0
2015-Apr-24 04:31N 37°49' W 122°20'0 0.2
2015-Apr-24 03:31N 37°49' W 122°20'2 2.1
2015-Apr-24 02:33N 37°48' W 122°18'0 0.4
2015-Apr-24 01:31N 37°48' W 122°17'0 0.0
2015-Apr-24 00:31N 37°48' W 122°17'0 0.0
2015-Apr-23 23:31N 37°48' W 122°17'0 0.0
2015-Apr-23 22:31N 37°48' W 122°17'0 0.0
2015-Apr-23 21:31N 37°48' W 122°17'0 0.0
2015-Apr-23 20:31N 37°48' W 122°17'0 0.0
2015-Apr-23 19:34N 37°48' W 122°17'0 0.0
2015-Apr-23 18:33N 37°48' W 122°17'1 1.5
2015-Apr-23 17:33N 37°48' W 122°19'5 5.1
2015-Apr-23 16:33N 37°51' W 122°24'4 3.9
2015-Apr-23 15:33N 37°55' W 122°22'0 0.4
2015-Apr-23 14:31N 37°55' W 122°22'0 0.0
2015-Apr-23 13:25N 37°55' W 122°22'0 0.0
2015-Apr-23 12:31N 37°55' W 122°22'0 0.0
2015-Apr-23 11:16N 37°55' W 122°22'0 0.0
2015-Apr-23 09:22N 37°55' W 122°22'0 0.0
2015-Apr-23 08:31N 37°55' W 122°22'0 0.0
2015-Apr-23 07:31N 37°55' W 122°22'0 0.0
2015-Apr-23 06:31N 37°55' W 122°22'0 0.0
2015-Apr-23 05:31N 37°55' W 122°22'0 0.0
2015-Apr-23 04:31N 37°55' W 122°22'0 0.0
2015-Apr-23 03:31N 37°55' W 122°22'0 0.3
2015-Apr-23 02:33N 37°55' W 122°22'3 2.8
2015-Apr-23 01:33N 37°53' W 122°25'7 6.8
2015-Apr-23 00:33N 37°48' W 122°19'1 1.4
2015-Apr-22 23:33N 37°48' W 122°17'9 8.7
2015-Apr-22 22:34N 37°54' W 122°24'2 1.8
2015-Apr-22 21:32N 37°55' W 122°22'0 0.0
2015-Apr-22 20:32N 37°55' W 122°22'0 0.0
2015-Apr-22 19:32N 37°55' W 122°22'0 0.0
2015-Apr-22 18:32N 37°55' W 122°22'0 0.0
2015-Apr-22 17:26N 37°55' W 122°22'0 0.4
2015-Apr-22 16:33N 37°55' W 122°22'6 5.5
2015-Apr-22 15:33N 37°49' W 122°21'4 3.4
2015-Apr-22 14:31N 37°48' W 122°17'0 0.0
2015-Apr-22 13:31N 37°48' W 122°17'0 0.0
2015-Apr-22 12:31N 37°48' W 122°17'0 0.0
2015-Apr-22 11:34N 37°48' W 122°17'0 0.0
2015-Apr-22 10:30N 37°48' W 122°17'0 0.0
2015-Apr-22 09:33N 37°48' W 122°17'0 0.0
2015-Apr-22 08:33N 37°48' W 122°17'0 0.0
2015-Apr-22 07:33N 37°48' W 122°17'0 0.0
2015-Apr-22 06:33N 37°48' W 122°17'0 0.0
2015-Apr-22 05:30N 37°48' W 122°17'0 0.0
2015-Apr-22 04:33N 37°48' W 122°17'0 0.0
2015-Apr-22 03:33N 37°48' W 122°17'0 0.0
2015-Apr-22 02:21N 37°48' W 122°17'0 0.0
2015-Apr-22 01:18N 37°48' W 122°17'0 0.0
2015-Apr-22 00:30N 37°48' W 122°17'0 0.0
2015-Apr-21 23:33N 37°48' W 122°17'0 0.0
2015-Apr-21 22:33N 37°48' W 122°17'0 0.0
2015-Apr-21 21:33N 37°48' W 122°17'0 0.0
2015-Apr-21 20:33N 37°48' W 122°17'0 0.0
2015-Apr-21 19:33N 37°48' W 122°17'0 0.0
2015-Apr-21 18:33N 37°48' W 122°17'0 0.0
2015-Apr-21 17:33N 37°48' W 122°17'4 4.2
2015-Apr-21 16:33N 37°48' W 122°22'6 6.2
2015-Apr-21 15:33N 37°54' W 122°24'1 1.4
2015-Apr-21 14:33N 37°55' W 122°22'0 0.0
2015-Apr-21 13:33N 37°55' W 122°22'0 0.2
2015-Apr-21 12:33N 37°55' W 122°22'0 0.0
2015-Apr-21 11:33N 37°55' W 122°22'0 0.0
2015-Apr-21 10:33N 37°55' W 122°22'0 0.0
2015-Apr-21 09:33N 37°55' W 122°22'0 0.0
2015-Apr-21 08:33N 37°55' W 122°22'0 0.0
2015-Apr-21 07:33N 37°55' W 122°22'0 0.0
2015-Apr-21 06:33N 37°55' W 122°22'0 0.0
2015-Apr-21 05:33N 37°55' W 122°22'0 0.0
2015-Apr-21 04:33N 37°55' W 122°22'0 0.0
2015-Apr-21 03:33N 37°55' W 122°22'0 0.0
2015-Apr-21 02:33N 37°55' W 122°22'0 0.0
2015-Apr-21 01:33N 37°55' W 122°22'0 0.0
2015-Apr-21 00:33N 37°55' W 122°22'0 0.0
2015-Apr-20 23:33N 37°55' W 122°22'0 0.0
2015-Apr-20 22:33N 37°55' W 122°22'0 0.0
2015-Apr-20 21:33N 37°55' W 122°22'0 0.0
2015-Apr-20 20:33N 37°55' W 122°22'0 0.2
2015-Apr-20 19:33N 37°55' W 122°22'2 2.0
2015-Apr-20 18:33N 37°55' W 122°24'2 2.5
2015-Apr-20 17:33N 37°52' W 122°24'4 4.2
2015-Apr-20 16:33N 37°49' W 122°28'6 6.1
2015-Apr-20 15:33N 37°46' W 122°35'6 6.1
2015-Apr-20 14:33N 37°43' W 122°42'4 4.3
2015-Apr-20 13:33N 37°45' W 122°47'3 3.3
2015-Apr-20 12:33N 37°47' W 122°50'4 3.4
2015-Apr-20 11:25N 37°49' W 122°54'3 3.4
2015-Apr-20 10:33N 37°51' W 122°57'4 3.8
2015-Apr-20 09:33N 37°53' W 123°01'6 5.7
2015-Apr-20 08:33N 37°56' W 123°08'6 5.7
2015-Apr-20 07:33N 37°59' W 123°13'6 5.6
2015-Apr-20 06:33N 38°04' W 123°18'5 5.5
2015-Apr-20 05:33N 38°07' W 123°23'5 5.4
2015-Apr-20 04:33N 38°10' W 123°28'5 5.3
2015-Apr-20 03:33N 38°13' W 123°34'6 5.5
2015-Apr-20 02:33N 38°17' W 123°39'6 5.7
2015-Apr-20 01:33N 38°20' W 123°45'6 5.7
2015-Apr-20 00:30N 38°23' W 123°51'11 5.6
2015-Apr-19 22:32N 38°30' W 124°03'  
Track history (hours):
 
Tides and Currents Weather Stations Pressure Air Temp Water Temp Dewpoint Dewpoint Depression Visibility Wind Speed Wind Dir Waves Ship Positions

Eagle

Owner: Harley Marine Services, INC, SEATTLE, WA. More information available from US FCC via Universal Licensing System and Coast Guard Vessel Documentation Center.

Last reported at 2015-Apr-27 16:04 UTC. Time now 2015-Apr-27 22:11 UTC.
Position N 38°31' W 123°43'.

Length 32 m; draft 4 m.

Type: Tow > 200 m length. MMSI: 366978690.

Date/timePositionNaut miles runAvg speedWind from/ knotsBaromVisibWave heightAir tempDewpointWater temp
2015-Apr-27 16:04N 38°31' W 123°43'3 5.8
2015-Apr-27 15:30N 38°29' W 123°40'5 5.7
2015-Apr-27 14:33N 38°24' W 123°36'6 5.5
2015-Apr-27 13:34N 38°20' W 123°31'6 5.7
2015-Apr-27 12:33N 38°16' W 123°26'6 5.8
2015-Apr-27 11:33N 38°11' W 123°22'6 5.6
2015-Apr-27 10:33N 38°07' W 123°17'5 5.3
2015-Apr-27 09:33N 38°03' W 123°13'6 5.7
2015-Apr-27 08:33N 37°58' W 123°08'6 5.7
2015-Apr-27 07:33N 37°56' W 123°02'6 5.6
2015-Apr-27 06:34N 37°53' W 122°56'6 5.8
2015-Apr-27 05:32N 37°50' W 122°49'6 5.4
2015-Apr-27 04:24N 37°47' W 122°42'4 4.2
2015-Apr-27 03:30N 37°46' W 122°38'6 6.0
2015-Apr-27 02:32N 37°48' W 122°31'6 6.0
2015-Apr-27 01:33N 37°51' W 122°25'4 3.6
2015-Apr-27 00:33N 37°54' W 122°24'2 1.6
2015-Apr-26 23:33N 37°55' W 122°22'0 0.0
2015-Apr-26 22:25N 37°55' W 122°22'0 0.0
2015-Apr-26 21:32N 37°55' W 122°22'0 0.0
2015-Apr-26 20:33N 37°55' W 122°22'0 0.0
2015-Apr-26 19:34N 37°55' W 122°22'0 0.0
2015-Apr-26 18:33N 37°55' W 122°22'0 0.0
2015-Apr-26 17:32N 37°55' W 122°22'0 0.0
2015-Apr-26 16:32N 37°55' W 122°22'0 0.0
2015-Apr-26 15:10N 37°55' W 122°22'0 0.0
2015-Apr-26 14:32N 37°55' W 122°22'0 0.0
2015-Apr-26 13:33N 37°55' W 122°22'0 0.0
2015-Apr-26 12:33N 37°55' W 122°22'0 0.0
2015-Apr-26 11:33N 37°55' W 122°22'0 0.0
2015-Apr-26 10:33N 37°55' W 122°22'0 0.0
2015-Apr-26 09:33N 37°55' W 122°22'0 0.0
2015-Apr-26 08:33N 37°55' W 122°22'2 2.3
2015-Apr-26 07:33N 37°55' W 122°25'6 5.7
2015-Apr-26 06:33N 38°01' W 122°24'5 5.3
2015-Apr-26 05:33N 38°03' W 122°18'2 1.8
2015-Apr-26 04:32N 38°03' W 122°16'0 0.0
2015-Apr-26 03:33N 38°03' W 122°16'0 0.0
2015-Apr-26 02:33N 38°03' W 122°16'0 0.0
2015-Apr-26 01:33N 38°03' W 122°16'0 0.0
2015-Apr-26 00:33N 38°03' W 122°16'0 0.0
2015-Apr-25 23:33N 38°03' W 122°16'0 0.0
2015-Apr-25 22:33N 38°03' W 122°16'0 0.0
2015-Apr-25 21:33N 38°03' W 122°16'0 0.0
2015-Apr-25 20:32N 38°03' W 122°16'0 0.0
2015-Apr-25 19:33N 38°03' W 122°16'0 0.0
2015-Apr-25 18:16N 38°03' W 122°16'0 0.1
2015-Apr-25 17:33N 38°03' W 122°16'0 0.0
2015-Apr-25 16:33N 38°03' W 122°16'0 0.0
2015-Apr-25 15:18N 38°03' W 122°16'0 0.1
2015-Apr-25 14:33N 38°03' W 122°16'0 0.3
2015-Apr-25 13:33N 38°04' W 122°16'7 6.9
2015-Apr-25 12:33N 38°01' W 122°24'7 7.3
2015-Apr-25 11:33N 37°53' W 122°26'7 6.8
2015-Apr-25 10:33N 37°47' W 122°22'3 2.6
2015-Apr-25 09:33N 37°45' W 122°20'0 0.1
2015-Apr-25 08:30N 37°45' W 122°20'0 0.0
2015-Apr-25 07:33N 37°45' W 122°20'0 0.1
2015-Apr-25 06:27N 37°45' W 122°20'0 0.1
2015-Apr-25 05:33N 37°45' W 122°21'0 0.0
2015-Apr-25 04:32N 37°45' W 122°21'0 0.0
2015-Apr-25 03:32N 37°45' W 122°21'3 2.9
2015-Apr-25 02:33N 37°48' W 122°20'3 2.5
2015-Apr-25 01:31N 37°48' W 122°17'0 0.0
2015-Apr-25 00:31N 37°48' W 122°17'0 0.0
2015-Apr-24 23:31N 37°48' W 122°17'0 0.0
2015-Apr-24 22:31N 37°48' W 122°17'0 0.2
2015-Apr-24 21:33N 37°48' W 122°17'2 2.0
2015-Apr-24 20:26N 37°49' W 122°20'0 0.1
2015-Apr-24 19:32N 37°49' W 122°20'0 0.0
2015-Apr-24 18:32N 37°49' W 122°20'0 0.0
2015-Apr-24 17:32N 37°49' W 122°20'0 0.0
2015-Apr-24 16:26N 37°49' W 122°20'0 0.0
2015-Apr-24 15:20N 37°49' W 122°20'0 0.0
2015-Apr-24 14:32N 37°49' W 122°20'0 0.0
2015-Apr-24 13:29N 37°49' W 122°20'0 0.0
2015-Apr-24 12:32N 37°49' W 122°20'0 0.0
2015-Apr-24 11:29N 37°49' W 122°20'0 0.0
2015-Apr-24 10:32N 37°49' W 122°20'0 0.0
2015-Apr-24 09:25N 37°49' W 122°20'0 0.0
2015-Apr-24 08:31N 37°49' W 122°20'0 0.0
2015-Apr-24 07:22N 37°49' W 122°20'0 0.0
2015-Apr-24 06:31N 37°49' W 122°20'0 0.0
2015-Apr-24 05:31N 37°49' W 122°20'0 0.0
2015-Apr-24 04:31N 37°49' W 122°20'0 0.2
2015-Apr-24 03:31N 37°49' W 122°20'2 2.1
2015-Apr-24 02:33N 37°48' W 122°18'0 0.4
2015-Apr-24 01:31N 37°48' W 122°17'0 0.0
2015-Apr-24 00:31N 37°48' W 122°17'0 0.0
2015-Apr-23 23:31N 37°48' W 122°17'0 0.0
2015-Apr-23 22:31N 37°48' W 122°17'0 0.0
2015-Apr-23 21:31N 37°48' W 122°17'0 0.0
2015-Apr-23 20:31N 37°48' W 122°17'0 0.0
2015-Apr-23 19:34N 37°48' W 122°17'0 0.0
2015-Apr-23 18:33N 37°48' W 122°17'1 1.5
2015-Apr-23 17:33N 37°48' W 122°19'5 5.1
2015-Apr-23 16:33N 37°51' W 122°24'4 3.9
2015-Apr-23 15:33N 37°55' W 122°22'0 0.4
2015-Apr-23 14:31N 37°55' W 122°22'0 0.0
2015-Apr-23 13:25N 37°55' W 122°22'0 0.0
2015-Apr-23 12:31N 37°55' W 122°22'0 0.0
2015-Apr-23 11:16N 37°55' W 122°22'0 0.0
2015-Apr-23 09:22N 37°55' W 122°22'0 0.0
2015-Apr-23 08:31N 37°55' W 122°22'0 0.0
2015-Apr-23 07:31N 37°55' W 122°22'0 0.0
2015-Apr-23 06:31N 37°55' W 122°22'0 0.0
2015-Apr-23 05:31N 37°55' W 122°22'0 0.0
2015-Apr-23 04:31N 37°55' W 122°22'0 0.0
2015-Apr-23 03:31N 37°55' W 122°22'0 0.3
2015-Apr-23 02:33N 37°55' W 122°22'3 2.8
2015-Apr-23 01:33N 37°53' W 122°25'7 6.8
2015-Apr-23 00:33N 37°48' W 122°19'1 1.4
2015-Apr-22 23:33N 37°48' W 122°17'9 8.7
2015-Apr-22 22:34N 37°54' W 122°24'2 1.8
2015-Apr-22 21:32N 37°55' W 122°22'0 0.0
2015-Apr-22 20:32N 37°55' W 122°22'0 0.0
2015-Apr-22 19:32N 37°55' W 122°22'0 0.0
2015-Apr-22 18:32N 37°55' W 122°22'0 0.0
2015-Apr-22 17:26N 37°55' W 122°22'0 0.4
2015-Apr-22 16:33N 37°55' W 122°22'6 5.5
2015-Apr-22 15:33N 37°49' W 122°21'4 3.4
2015-Apr-22 14:31N 37°48' W 122°17'0 0.0
2015-Apr-22 13:31N 37°48' W 122°17'0 0.0
2015-Apr-22 12:31N 37°48' W 122°17'0 0.0
2015-Apr-22 11:34N 37°48' W 122°17'0 0.0
2015-Apr-22 10:30N 37°48' W 122°17'0 0.0
2015-Apr-22 09:33N 37°48' W 122°17'0 0.0
2015-Apr-22 08:33N 37°48' W 122°17'0 0.0
2015-Apr-22 07:33N 37°48' W 122°17'0 0.0
2015-Apr-22 06:33N 37°48' W 122°17'0 0.0
2015-Apr-22 05:30N 37°48' W 122°17'0 0.0
2015-Apr-22 04:33N 37°48' W 122°17'0 0.0
2015-Apr-22 03:33N 37°48' W 122°17'0 0.0
2015-Apr-22 02:21N 37°48' W 122°17'0 0.0
2015-Apr-22 01:18N 37°48' W 122°17'0 0.0
2015-Apr-22 00:30N 37°48' W 122°17'0 0.0
2015-Apr-21 23:33N 37°48' W 122°17'0 0.0
2015-Apr-21 22:33N 37°48' W 122°17'0 0.0
2015-Apr-21 21:33N 37°48' W 122°17'0 0.0
2015-Apr-21 20:33N 37°48' W 122°17'0 0.0
2015-Apr-21 19:33N 37°48' W 122°17'0 0.0
2015-Apr-21 18:33N 37°48' W 122°17'0 0.0
2015-Apr-21 17:33N 37°48' W 122°17'4 4.2
2015-Apr-21 16:33N 37°48' W 122°22'6 6.2
2015-Apr-21 15:33N 37°54' W 122°24'1 1.4
2015-Apr-21 14:33N 37°55' W 122°22'0 0.0
2015-Apr-21 13:33N 37°55' W 122°22'0 0.2
2015-Apr-21 12:33N 37°55' W 122°22'0 0.0
2015-Apr-21 11:33N 37°55' W 122°22'0 0.0
2015-Apr-21 10:33N 37°55' W 122°22'0 0.0
2015-Apr-21 09:33N 37°55' W 122°22'0 0.0
2015-Apr-21 08:33N 37°55' W 122°22'0 0.0
2015-Apr-21 07:33N 37°55' W 122°22'0 0.0
2015-Apr-21 06:33N 37°55' W 122°22'0 0.0
2015-Apr-21 05:33N 37°55' W 122°22'0 0.0
2015-Apr-21 04:33N 37°55' W 122°22'0 0.0
2015-Apr-21 03:33N 37°55' W 122°22'0 0.0
2015-Apr-21 02:33N 37°55' W 122°22'0 0.0
2015-Apr-21 01:33N 37°55' W 122°22'0 0.0
2015-Apr-21 00:33N 37°55' W 122°22'0 0.0
2015-Apr-20 23:33N 37°55' W 122°22'0 0.0
2015-Apr-20 22:33N 37°55' W 122°22'0 0.0
2015-Apr-20 21:33N 37°55' W 122°22'0 0.0
2015-Apr-20 20:33N 37°55' W 122°22'0 0.2
2015-Apr-20 19:33N 37°55' W 122°22'2 2.0
2015-Apr-20 18:33N 37°55' W 122°24'2 2.5
2015-Apr-20 17:33N 37°52' W 122°24'4 4.2
2015-Apr-20 16:33N 37°49' W 122°28'6 6.1
2015-Apr-20 15:33N 37°46' W 122°35'6 6.1
2015-Apr-20 14:33N 37°43' W 122°42'4 4.3
2015-Apr-20 13:33N 37°45' W 122°47'3 3.3
2015-Apr-20 12:33N 37°47' W 122°50'4 3.4
2015-Apr-20 11:25N 37°49' W 122°54'3 3.4
2015-Apr-20 10:33N 37°51' W 122°57'4 3.8
2015-Apr-20 09:33N 37°53' W 123°01'6 5.7
2015-Apr-20 08:33N 37°56' W 123°08'6 5.7
2015-Apr-20 07:33N 37°59' W 123°13'6 5.6
2015-Apr-20 06:33N 38°04' W 123°18'5 5.5
2015-Apr-20 05:33N 38°07' W 123°23'5 5.4
2015-Apr-20 04:33N 38°10' W 123°28'5 5.3
2015-Apr-20 03:33N 38°13' W 123°34'6 5.5
2015-Apr-20 02:33N 38°17' W 123°39'6 5.7
2015-Apr-20 01:33N 38°20' W 123°45'6 5.7
2015-Apr-20 00:30N 38°23' W 123°51'11 5.6
2015-Apr-19 22:32N 38°30' W 124°03'  

Dump ship's entire track history